sensor_id;sensor_type;location;lat;lon;timestamp;P1;durP1;ratioP1;P2;durP2;ratioP2
58470;SDS011;44258;51.288;12.068;2023-05-10T00:02:24;10.18;;;5.93;;
58470;SDS011;44258;51.288;12.068;2023-05-10T00:04:51;10.70;;;5.40;;
58470;SDS011;44258;51.288;12.068;2023-05-10T00:07:20;10.15;;;5.47;;
58470;SDS011;44258;51.288;12.068;2023-05-10T00:09:47;12.30;;;5.60;;
58470;SDS011;44258;51.288;12.068;2023-05-10T00:12:13;11.68;;;6.00;;
58470;SDS011;44258;51.288;12.068;2023-05-10T00:14:40;11.57;;;5.10;;
58470;SDS011;44258;51.288;12.068;2023-05-10T00:17:06;12.63;;;6.03;;
58470;SDS011;44258;51.288;12.068;2023-05-10T00:19:33;8.55;;;4.82;;
58470;SDS011;44258;51.288;12.068;2023-05-10T00:22:00;11.02;;;5.28;;
58470;SDS011;44258;51.288;12.068;2023-05-10T00:24:27;11.57;;;5.78;;
58470;SDS011;44258;51.288;12.068;2023-05-10T00:26:54;12.88;;;5.45;;
58470;SDS011;44258;51.288;12.068;2023-05-10T00:29:21;10.10;;;5.20;;
58470;SDS011;44258;51.288;12.068;2023-05-10T00:31:47;11.50;;;5.47;;
58470;SDS011;44258;51.288;12.068;2023-05-10T00:34:14;10.68;;;5.57;;
58470;SDS011;44258;51.288;12.068;2023-05-10T00:36:43;13.13;;;5.25;;
58470;SDS011;44258;51.288;12.068;2023-05-10T00:39:10;11.18;;;5.20;;
58470;SDS011;44258;51.288;12.068;2023-05-10T00:41:39;11.30;;;5.35;;
58470;SDS011;44258;51.288;12.068;2023-05-10T00:44:08;12.20;;;5.82;;
58470;SDS011;44258;51.288;12.068;2023-05-10T00:46:35;11.65;;;6.03;;
58470;SDS011;44258;51.288;12.068;2023-05-10T00:49:02;11.88;;;5.70;;
58470;SDS011;44258;51.288;12.068;2023-05-10T00:51:29;10.45;;;5.53;;
58470;SDS011;44258;51.288;12.068;2023-05-10T00:53:57;10.50;;;5.78;;
58470;SDS011;44258;51.288;12.068;2023-05-10T00:56:24;12.75;;;6.03;;
58470;SDS011;44258;51.288;12.068;2023-05-10T00:58:53;11.25;;;6.18;;
58470;SDS011;44258;51.288;12.068;2023-05-10T01:01:20;13.02;;;6.38;;
58470;SDS011;44258;51.288;12.068;2023-05-10T01:03:46;11.63;;;5.65;;
58470;SDS011;44258;51.288;12.068;2023-05-10T01:06:16;11.02;;;5.80;;
58470;SDS011;44258;51.288;12.068;2023-05-10T01:08:43;12.15;;;5.70;;
58470;SDS011;44258;51.288;12.068;2023-05-10T01:11:09;11.90;;;5.72;;
58470;SDS011;44258;51.288;12.068;2023-05-10T01:13:37;11.73;;;5.53;;
58470;SDS011;44258;51.288;12.068;2023-05-10T01:16:08;12.55;;;5.50;;
58470;SDS011;44258;51.288;12.068;2023-05-10T01:18:36;10.98;;;5.40;;
58470;SDS011;44258;51.288;12.068;2023-05-10T01:21:15;11.95;;;6.22;;
58470;SDS011;44258;51.288;12.068;2023-05-10T01:26:50;10.48;;;5.70;;
58470;SDS011;44258;51.288;12.068;2023-05-10T01:32:41;11.70;;;6.20;;
58470;SDS011;44258;51.288;12.068;2023-05-10T01:35:19;10.38;;;5.80;;
58470;SDS011;44258;51.288;12.068;2023-05-10T01:37:57;12.02;;;6.35;;
58470;SDS011;44258;51.288;12.068;2023-05-10T01:40:31;11.57;;;5.93;;
58470;SDS011;44258;51.288;12.068;2023-05-10T01:43:02;12.02;;;5.82;;
58470;SDS011;44258;51.288;12.068;2023-05-10T01:45:37;10.52;;;5.82;;
58470;SDS011;44258;51.288;12.068;2023-05-10T01:48:10;12.27;;;5.38;;
58470;SDS011;44258;51.288;12.068;2023-05-10T01:50:39;12.98;;;5.93;;
58470;SDS011;44258;51.288;12.068;2023-05-10T01:53:10;11.23;;;5.57;;
58470;SDS011;44258;51.288;12.068;2023-05-10T01:55:44;11.88;;;5.50;;
58470;SDS011;44258;51.288;12.068;2023-05-10T01:58:15;11.85;;;5.60;;
58470;SDS011;44258;51.288;12.068;2023-05-10T02:00:46;13.35;;;5.55;;
58470;SDS011;44258;51.288;12.068;2023-05-10T02:03:17;12.43;;;5.47;;
58470;SDS011;44258;51.288;12.068;2023-05-10T02:05:48;13.73;;;5.30;;
58470;SDS011;44258;51.288;12.068;2023-05-10T02:08:16;12.10;;;5.80;;
58470;SDS011;44258;51.288;12.068;2023-05-10T02:10:49;13.88;;;5.25;;
58470;SDS011;44258;51.288;12.068;2023-05-10T02:13:18;10.73;;;5.20;;
58470;SDS011;44258;51.288;12.068;2023-05-10T02:15:46;12.90;;;5.20;;
58470;SDS011;44258;51.288;12.068;2023-05-10T02:18:14;10.10;;;5.30;;
58470;SDS011;44258;51.288;12.068;2023-05-10T02:20:45;11.63;;;5.53;;
58470;SDS011;44258;51.288;12.068;2023-05-10T02:23:12;10.10;;;4.80;;
58470;SDS011;44258;51.288;12.068;2023-05-10T02:25:40;10.55;;;4.80;;
58470;SDS011;44258;51.288;12.068;2023-05-10T02:28:09;10.25;;;4.80;;
58470;SDS011;44258;51.288;12.068;2023-05-10T02:30:38;11.15;;;5.35;;
58470;SDS011;44258;51.288;12.068;2023-05-10T02:33:05;10.25;;;5.18;;
58470;SDS011;44258;51.288;12.068;2023-05-10T02:35:34;10.10;;;4.90;;
58470;SDS011;44258;51.288;12.068;2023-05-10T02:38:02;10.02;;;4.90;;
58470;SDS011;44258;51.288;12.068;2023-05-10T02:40:30;9.80;;;4.72;;
58470;SDS011;44258;51.288;12.068;2023-05-10T02:42:59;12.00;;;4.70;;
58470;SDS011;44258;51.288;12.068;2023-05-10T02:45:29;11.10;;;5.05;;
58470;SDS011;44258;51.288;12.068;2023-05-10T02:47:58;10.82;;;5.43;;
58470;SDS011;44258;51.288;12.068;2023-05-10T02:50:25;10.02;;;4.85;;
58470;SDS011;44258;51.288;12.068;2023-05-10T02:52:59;10.52;;;5.18;;
58470;SDS011;44258;51.288;12.068;2023-05-10T02:55:30;9.30;;;4.68;;
58470;SDS011;44258;51.288;12.068;2023-05-10T02:58:01;11.32;;;5.00;;
58470;SDS011;44258;51.288;12.068;2023-05-10T03:00:28;9.02;;;4.70;;
58470;SDS011;44258;51.288;12.068;2023-05-10T03:02:55;10.00;;;4.75;;
58470;SDS011;44258;51.288;12.068;2023-05-10T03:05:22;10.68;;;5.05;;
58470;SDS011;44258;51.288;12.068;2023-05-10T03:07:48;10.05;;;4.88;;
58470;SDS011;44258;51.288;12.068;2023-05-10T03:10:18;8.48;;;4.47;;
58470;SDS011;44258;51.288;12.068;2023-05-10T03:12:49;9.75;;;4.70;;
58470;SDS011;44258;51.288;12.068;2023-05-10T03:15:25;10.50;;;4.88;;
58470;SDS011;44258;51.288;12.068;2023-05-10T03:18:03;10.52;;;4.78;;
58470;SDS011;44258;51.288;12.068;2023-05-10T03:20:34;9.30;;;4.78;;
58470;SDS011;44258;51.288;12.068;2023-05-10T03:23:07;10.07;;;5.35;;
58470;SDS011;44258;51.288;12.068;2023-05-10T03:25:41;11.63;;;5.53;;
58470;SDS011;44258;51.288;12.068;2023-05-10T03:28:10;9.43;;;4.90;;
58470;SDS011;44258;51.288;12.068;2023-05-10T03:30:43;11.25;;;4.68;;
58470;SDS011;44258;51.288;12.068;2023-05-10T03:33:11;11.63;;;5.22;;
58470;SDS011;44258;51.288;12.068;2023-05-10T03:35:39;11.75;;;5.05;;
58470;SDS011;44258;51.288;12.068;2023-05-10T03:38:05;9.68;;;4.70;;
58470;SDS011;44258;51.288;12.068;2023-05-10T03:40:32;10.15;;;4.78;;
58470;SDS011;44258;51.288;12.068;2023-05-10T03:43:00;9.43;;;4.63;;
58470;SDS011;44258;51.288;12.068;2023-05-10T03:45:27;11.10;;;4.97;;
58470;SDS011;44258;51.288;12.068;2023-05-10T03:47:53;9.88;;;4.80;;
58470;SDS011;44258;51.288;12.068;2023-05-10T03:50:32;10.65;;;5.15;;
58470;SDS011;44258;51.288;12.068;2023-05-10T03:52:59;14.20;;;4.60;;
58470;SDS011;44258;51.288;12.068;2023-05-10T03:55:25;10.50;;;4.85;;
58470;SDS011;44258;51.288;12.068;2023-05-10T03:57:53;11.60;;;4.90;;
58470;SDS011;44258;51.288;12.068;2023-05-10T04:00:24;8.75;;;4.53;;
58470;SDS011;44258;51.288;12.068;2023-05-10T04:02:53;8.82;;;5.07;;
58470;SDS011;44258;51.288;12.068;2023-05-10T04:05:20;9.18;;;4.68;;
58470;SDS011;44258;51.288;12.068;2023-05-10T04:07:46;9.45;;;4.82;;
58470;SDS011;44258;51.288;12.068;2023-05-10T04:10:14;10.32;;;4.78;;
58470;SDS011;44258;51.288;12.068;2023-05-10T04:12:41;9.50;;;5.20;;
58470;SDS011;44258;51.288;12.068;2023-05-10T04:15:11;10.05;;;4.72;;
58470;SDS011;44258;51.288;12.068;2023-05-10T04:17:39;9.77;;;4.63;;
58470;SDS011;44258;51.288;12.068;2023-05-10T04:20:06;10.60;;;4.50;;
58470;SDS011;44258;51.288;12.068;2023-05-10T04:22:34;9.27;;;4.72;;
58470;SDS011;44258;51.288;12.068;2023-05-10T04:25:00;9.68;;;4.80;;
58470;SDS011;44258;51.288;12.068;2023-05-10T04:27:27;10.20;;;5.20;;
58470;SDS011;44258;51.288;12.068;2023-05-10T04:29:54;11.07;;;5.18;;
58470;SDS011;44258;51.288;12.068;2023-05-10T04:32:20;9.73;;;4.90;;
58470;SDS011;44258;51.288;12.068;2023-05-10T04:34:51;8.68;;;4.90;;
58470;SDS011;44258;51.288;12.068;2023-05-10T04:37:18;13.30;;;5.07;;
58470;SDS011;44258;51.288;12.068;2023-05-10T04:39:45;11.70;;;5.47;;
58470;SDS011;44258;51.288;12.068;2023-05-10T04:42:11;12.75;;;5.40;;
58470;SDS011;44258;51.288;12.068;2023-05-10T04:44:39;9.80;;;5.25;;
58470;SDS011;44258;51.288;12.068;2023-05-10T04:47:10;10.35;;;5.55;;
58470;SDS011;44258;51.288;12.068;2023-05-10T04:49:38;10.65;;;5.32;;
58470;SDS011;44258;51.288;12.068;2023-05-10T04:52:06;13.57;;;5.35;;
58470;SDS011;44258;51.288;12.068;2023-05-10T04:54:33;10.88;;;5.50;;
58470;SDS011;44258;51.288;12.068;2023-05-10T04:56:59;11.57;;;5.47;;
58470;SDS011;44258;51.288;12.068;2023-05-10T04:59:26;12.20;;;5.05;;
58470;SDS011;44258;51.288;12.068;2023-05-10T05:01:54;10.02;;;5.28;;
58470;SDS011;44258;51.288;12.068;2023-05-10T05:04:21;9.60;;;5.18;;
58470;SDS011;44258;51.288;12.068;2023-05-10T05:06:49;10.88;;;4.82;;
58470;SDS011;44258;51.288;12.068;2023-05-10T05:09:17;11.48;;;4.85;;
58470;SDS011;44258;51.288;12.068;2023-05-10T05:11:46;8.82;;;4.50;;
58470;SDS011;44258;51.288;12.068;2023-05-10T05:14:12;10.05;;;5.00;;
58470;SDS011;44258;51.288;12.068;2023-05-10T05:16:39;10.35;;;5.60;;
58470;SDS011;44258;51.288;12.068;2023-05-10T05:19:05;11.75;;;5.15;;
58470;SDS011;44258;51.288;12.068;2023-05-10T05:21:32;9.73;;;5.18;;
58470;SDS011;44258;51.288;12.068;2023-05-10T05:24:01;9.80;;;4.85;;
58470;SDS011;44258;51.288;12.068;2023-05-10T05:26:29;11.30;;;5.10;;
58470;SDS011;44258;51.288;12.068;2023-05-10T05:28:55;10.32;;;4.90;;
58470;SDS011;44258;51.288;12.068;2023-05-10T05:31:22;12.60;;;5.22;;
58470;SDS011;44258;51.288;12.068;2023-05-10T05:33:49;9.57;;;5.10;;
58470;SDS011;44258;51.288;12.068;2023-05-10T05:36:18;9.32;;;4.80;;
58470;SDS011;44258;51.288;12.068;2023-05-10T05:38:44;9.95;;;4.78;;
58470;SDS011;44258;51.288;12.068;2023-05-10T05:41:11;13.02;;;4.68;;
58470;SDS011;44258;51.288;12.068;2023-05-10T05:43:40;11.65;;;5.13;;
58470;SDS011;44258;51.288;12.068;2023-05-10T05:46:09;11.57;;;4.93;;
58470;SDS011;44258;51.288;12.068;2023-05-10T05:48:36;12.43;;;4.78;;
58470;SDS011;44258;51.288;12.068;2023-05-10T05:51:04;9.75;;;4.68;;
58470;SDS011;44258;51.288;12.068;2023-05-10T05:53:34;10.85;;;4.97;;
58470;SDS011;44258;51.288;12.068;2023-05-10T05:56:05;9.30;;;4.43;;
58470;SDS011;44258;51.288;12.068;2023-05-10T05:58:33;9.82;;;4.60;;
58470;SDS011;44258;51.288;12.068;2023-05-10T06:01:01;9.40;;;4.80;;
58470;SDS011;44258;51.288;12.068;2023-05-10T06:03:27;10.30;;;5.38;;
58470;SDS011;44258;51.288;12.068;2023-05-10T06:05:54;10.60;;;4.82;;
58470;SDS011;44258;51.288;12.068;2023-05-10T06:08:20;9.45;;;4.53;;
58470;SDS011;44258;51.288;12.068;2023-05-10T06:10:55;9.52;;;4.78;;
58470;SDS011;44258;51.288;12.068;2023-05-10T06:13:21;8.50;;;4.50;;
58470;SDS011;44258;51.288;12.068;2023-05-10T06:15:48;9.05;;;4.20;;
58470;SDS011;44258;51.288;12.068;2023-05-10T06:18:16;9.18;;;4.45;;
58470;SDS011;44258;51.288;12.068;2023-05-10T06:20:43;9.60;;;4.68;;
58470;SDS011;44258;51.288;12.068;2023-05-10T06:23:09;10.35;;;4.47;;
58470;SDS011;44258;51.288;12.068;2023-05-10T06:25:36;9.95;;;4.07;;
58470;SDS011;44258;51.288;12.068;2023-05-10T06:28:03;11.40;;;4.38;;
58470;SDS011;44258;51.288;12.068;2023-05-10T06:30:29;10.05;;;4.30;;
58470;SDS011;44258;51.288;12.068;2023-05-10T06:32:59;9.13;;;4.50;;
58470;SDS011;44258;51.288;12.068;2023-05-10T06:35:27;11.52;;;4.57;;
58470;SDS011;44258;51.288;12.068;2023-05-10T06:37:55;10.10;;;5.05;;
58470;SDS011;44258;51.288;12.068;2023-05-10T06:40:22;10.75;;;4.65;;
58470;SDS011;44258;51.288;12.068;2023-05-10T06:42:48;10.75;;;4.57;;
58470;SDS011;44258;51.288;12.068;2023-05-10T06:45:15;10.00;;;4.53;;
58470;SDS011;44258;51.288;12.068;2023-05-10T06:47:44;10.77;;;4.53;;
58470;SDS011;44258;51.288;12.068;2023-05-10T06:50:11;12.20;;;4.30;;
58470;SDS011;44258;51.288;12.068;2023-05-10T06:52:39;9.70;;;4.65;;
58470;SDS011;44258;51.288;12.068;2023-05-10T06:55:06;10.88;;;4.43;;
58470;SDS011;44258;51.288;12.068;2023-05-10T06:57:33;10.10;;;5.07;;
58470;SDS011;44258;51.288;12.068;2023-05-10T07:00:01;11.07;;;4.35;;
58470;SDS011;44258;51.288;12.068;2023-05-10T07:02:29;10.25;;;4.70;;
58470;SDS011;44258;51.288;12.068;2023-05-10T07:04:56;8.20;;;4.05;;
58470;SDS011;44258;51.288;12.068;2023-05-10T07:07:22;8.27;;;4.00;;
58470;SDS011;44258;51.288;12.068;2023-05-10T07:09:51;8.38;;;4.13;;
58470;SDS011;44258;51.288;12.068;2023-05-10T07:12:21;9.27;;;4.40;;
58470;SDS011;44258;51.288;12.068;2023-05-10T07:14:48;8.95;;;4.30;;
58470;SDS011;44258;51.288;12.068;2023-05-10T07:17:14;11.40;;;4.90;;
58470;SDS011;44258;51.288;12.068;2023-05-10T07:19:41;8.82;;;4.70;;
58470;SDS011;44258;51.288;12.068;2023-05-10T07:22:08;11.30;;;4.88;;
58470;SDS011;44258;51.288;12.068;2023-05-10T07:24:35;10.07;;;4.80;;
58470;SDS011;44258;51.288;12.068;2023-05-10T07:27:03;9.10;;;4.40;;
58470;SDS011;44258;51.288;12.068;2023-05-10T07:29:31;10.00;;;4.90;;
58470;SDS011;44258;51.288;12.068;2023-05-10T07:31:57;9.00;;;4.55;;
58470;SDS011;44258;51.288;12.068;2023-05-10T07:34:24;9.50;;;4.35;;
58470;SDS011;44258;51.288;12.068;2023-05-10T07:36:51;9.82;;;4.90;;
58470;SDS011;44258;51.288;12.068;2023-05-10T07:39:20;10.23;;;4.65;;
58470;SDS011;44258;51.288;12.068;2023-05-10T07:41:47;11.45;;;4.70;;
58470;SDS011;44258;51.288;12.068;2023-05-10T07:44:15;10.27;;;5.10;;
58470;SDS011;44258;51.288;12.068;2023-05-10T07:46:43;9.02;;;4.85;;
58470;SDS011;44258;51.288;12.068;2023-05-10T07:49:10;15.82;;;6.25;;
58470;SDS011;44258;51.288;12.068;2023-05-10T07:51:36;9.60;;;5.03;;
58470;SDS011;44258;51.288;12.068;2023-05-10T07:54:03;9.63;;;5.13;;
58470;SDS011;44258;51.288;12.068;2023-05-10T07:56:32;9.32;;;4.80;;
58470;SDS011;44258;51.288;12.068;2023-05-10T07:59:00;10.48;;;5.03;;
58470;SDS011;44258;51.288;12.068;2023-05-10T08:01:31;21.25;;;6.85;;
58470;SDS011;44258;51.288;12.068;2023-05-10T08:04:00;20.27;;;7.07;;
58470;SDS011;44258;51.288;12.068;2023-05-10T08:06:27;11.75;;;5.72;;
58470;SDS011;44258;51.288;12.068;2023-05-10T08:08:55;33.83;;;8.82;;
58470;SDS011;44258;51.288;12.068;2023-05-10T08:11:22;33.05;;;9.25;;
58470;SDS011;44258;51.288;12.068;2023-05-10T08:13:50;33.60;;;9.95;;
58470;SDS011;44258;51.288;12.068;2023-05-10T08:16:19;22.45;;;8.05;;
58470;SDS011;44258;51.288;12.068;2023-05-10T08:18:47;12.30;;;6.32;;
58470;SDS011;44258;51.288;12.068;2023-05-10T08:21:14;12.13;;;5.72;;
58470;SDS011;44258;51.288;12.068;2023-05-10T08:23:41;11.32;;;6.10;;
58470;SDS011;44258;51.288;12.068;2023-05-10T08:26:09;10.52;;;5.78;;
58470;SDS011;44258;51.288;12.068;2023-05-10T08:28:36;10.98;;;5.45;;
58470;SDS011;44258;51.288;12.068;2023-05-10T08:31:04;11.23;;;5.90;;
58470;SDS011;44258;51.288;12.068;2023-05-10T08:33:31;11.55;;;5.88;;
58470;SDS011;44258;51.288;12.068;2023-05-10T08:35:58;14.68;;;6.63;;
58470;SDS011;44258;51.288;12.068;2023-05-10T08:38:25;12.18;;;6.22;;
58470;SDS011;44258;51.288;12.068;2023-05-10T08:40:52;12.18;;;5.90;;
58470;SDS011;44258;51.288;12.068;2023-05-10T08:43:21;11.05;;;5.55;;
58470;SDS011;44258;51.288;12.068;2023-05-10T08:45:55;11.13;;;5.78;;
58470;SDS011;44258;51.288;12.068;2023-05-10T08:48:23;14.80;;;7.07;;
58470;SDS011;44258;51.288;12.068;2023-05-10T08:50:52;12.90;;;6.43;;
58470;SDS011;44258;51.288;12.068;2023-05-10T08:53:22;11.40;;;5.90;;
58470;SDS011;44258;51.288;12.068;2023-05-10T08:55:57;11.13;;;5.90;;
58470;SDS011;44258;51.288;12.068;2023-05-10T08:58:26;12.30;;;6.57;;
58470;SDS011;44258;51.288;12.068;2023-05-10T09:00:53;11.50;;;6.38;;
58470;SDS011;44258;51.288;12.068;2023-05-10T09:03:24;14.35;;;6.32;;
58470;SDS011;44258;51.288;12.068;2023-05-10T09:05:51;11.73;;;6.72;;
58470;SDS011;44258;51.288;12.068;2023-05-10T09:08:22;11.55;;;6.30;;
58470;SDS011;44258;51.288;12.068;2023-05-10T09:10:51;13.77;;;7.25;;
58470;SDS011;44258;51.288;12.068;2023-05-10T09:13:18;14.45;;;6.80;;
58470;SDS011;44258;51.288;12.068;2023-05-10T09:15:55;14.00;;;6.35;;
58470;SDS011;44258;51.288;12.068;2023-05-10T09:18:25;12.32;;;6.55;;
58470;SDS011;44258;51.288;12.068;2023-05-10T09:20:52;13.80;;;7.18;;
58470;SDS011;44258;51.288;12.068;2023-05-10T09:23:19;13.88;;;6.85;;
58470;SDS011;44258;51.288;12.068;2023-05-10T09:25:47;12.75;;;7.00;;
58470;SDS011;44258;51.288;12.068;2023-05-10T09:28:13;13.85;;;7.20;;
58470;SDS011;44258;51.288;12.068;2023-05-10T09:30:40;13.95;;;7.20;;
58470;SDS011;44258;51.288;12.068;2023-05-10T09:33:10;14.40;;;7.38;;
58470;SDS011;44258;51.288;12.068;2023-05-10T09:35:44;12.15;;;6.57;;
58470;SDS011;44258;51.288;12.068;2023-05-10T09:38:10;12.95;;;7.20;;
58470;SDS011;44258;51.288;12.068;2023-05-10T09:40:37;14.68;;;6.80;;
58470;SDS011;44258;51.288;12.068;2023-05-10T09:43:08;13.63;;;7.32;;
58470;SDS011;44258;51.288;12.068;2023-05-10T09:45:35;14.27;;;7.68;;
58470;SDS011;44258;51.288;12.068;2023-05-10T09:48:02;13.95;;;7.30;;
58470;SDS011;44258;51.288;12.068;2023-05-10T09:50:32;13.65;;;6.90;;
58470;SDS011;44258;51.288;12.068;2023-05-10T09:53:00;12.50;;;7.10;;
58470;SDS011;44258;51.288;12.068;2023-05-10T09:55:38;11.88;;;7.00;;
58470;SDS011;44258;51.288;12.068;2023-05-10T09:58:13;12.48;;;7.30;;
58470;SDS011;44258;51.288;12.068;2023-05-10T10:00:41;14.27;;;7.60;;
58470;SDS011;44258;51.288;12.068;2023-05-10T10:03:13;14.52;;;7.45;;
58470;SDS011;44258;51.288;12.068;2023-05-10T10:05:40;12.23;;;7.13;;
58470;SDS011;44258;51.288;12.068;2023-05-10T10:08:07;12.80;;;7.35;;
58470;SDS011;44258;51.288;12.068;2023-05-10T10:10:34;13.68;;;7.22;;
58470;SDS011;44258;51.288;12.068;2023-05-10T10:13:01;14.18;;;7.18;;
58470;SDS011;44258;51.288;12.068;2023-05-10T10:15:33;12.18;;;7.00;;
58470;SDS011;44258;51.288;12.068;2023-05-10T10:18:00;9.63;;;5.18;;
58470;SDS011;44258;51.288;12.068;2023-05-10T10:20:28;11.25;;;5.82;;
58470;SDS011;44258;51.288;12.068;2023-05-10T10:22:55;10.30;;;5.53;;
58470;SDS011;44258;51.288;12.068;2023-05-10T10:25:22;10.48;;;5.10;;
58470;SDS011;44258;51.288;12.068;2023-05-10T10:27:56;14.13;;;6.00;;
58470;SDS011;44258;51.288;12.068;2023-05-10T10:30:37;11.27;;;5.72;;
58470;SDS011;44258;51.288;12.068;2023-05-10T10:33:30;10.27;;;5.78;;
58470;SDS011;44258;51.288;12.068;2023-05-10T10:36:05;10.27;;;5.75;;
58470;SDS011;44258;51.288;12.068;2023-05-10T10:41:30;9.90;;;5.25;;
58470;SDS011;44258;51.288;12.068;2023-05-10T10:47:10;11.27;;;5.78;;
58470;SDS011;44258;51.288;12.068;2023-05-10T10:50:04;8.93;;;4.65;;
58470;SDS011;44258;51.288;12.068;2023-05-10T10:52:32;9.68;;;5.20;;
58470;SDS011;44258;51.288;12.068;2023-05-10T10:55:00;10.43;;;5.50;;
58470;SDS011;44258;51.288;12.068;2023-05-10T10:57:30;10.35;;;5.13;;
58470;SDS011;44258;51.288;12.068;2023-05-10T11:02:52;9.23;;;4.95;;
58470;SDS011;44258;51.288;12.068;2023-05-10T11:05:23;9.52;;;4.60;;
58470;SDS011;44258;51.288;12.068;2023-05-10T11:08:09;10.05;;;5.03;;
58470;SDS011;44258;51.288;12.068;2023-05-10T11:10:39;10.05;;;5.07;;
58470;SDS011;44258;51.288;12.068;2023-05-10T11:13:07;10.57;;;4.93;;
58470;SDS011;44258;51.288;12.068;2023-05-10T11:15:35;8.80;;;4.65;;
58470;SDS011;44258;51.288;12.068;2023-05-10T11:18:19;9.55;;;4.63;;
58470;SDS011;44258;51.288;12.068;2023-05-10T11:20:55;10.20;;;5.22;;
58470;SDS011;44258;51.288;12.068;2023-05-10T11:23:28;11.33;;;5.00;;
58470;SDS011;44258;51.288;12.068;2023-05-10T11:25:56;9.48;;;4.68;;
58470;SDS011;44258;51.288;12.068;2023-05-10T11:28:27;9.35;;;5.28;;
58470;SDS011;44258;51.288;12.068;2023-05-10T11:30:54;11.07;;;5.20;;
58470;SDS011;44258;51.288;12.068;2023-05-10T11:33:22;9.00;;;4.88;;
58470;SDS011;44258;51.288;12.068;2023-05-10T11:35:54;9.05;;;4.85;;
58470;SDS011;44258;51.288;12.068;2023-05-10T11:38:21;8.35;;;4.20;;
58470;SDS011;44258;51.288;12.068;2023-05-10T11:40:47;8.50;;;4.28;;
58470;SDS011;44258;51.288;12.068;2023-05-10T11:43:19;7.72;;;4.20;;
58470;SDS011;44258;51.288;12.068;2023-05-10T11:45:53;7.95;;;3.80;;
58470;SDS011;44258;51.288;12.068;2023-05-10T11:48:22;9.45;;;4.78;;
58470;SDS011;44258;51.288;12.068;2023-05-10T11:50:49;8.57;;;4.30;;
58470;SDS011;44258;51.288;12.068;2023-05-10T11:53:16;8.65;;;4.32;;
58470;SDS011;44258;51.288;12.068;2023-05-10T11:55:46;8.30;;;4.30;;
58470;SDS011;44258;51.288;12.068;2023-05-10T11:58:17;8.25;;;4.13;;
58470;SDS011;44258;51.288;12.068;2023-05-10T12:00:49;8.15;;;4.32;;
58470;SDS011;44258;51.288;12.068;2023-05-10T12:03:16;9.77;;;4.60;;
58470;SDS011;44258;51.288;12.068;2023-05-10T12:05:44;4.50;;;2.28;;
58470;SDS011;44258;51.288;12.068;2023-05-10T12:08:11;4.47;;;1.67;;
58470;SDS011;44258;51.288;12.068;2023-05-10T12:10:41;2.40;;;0.93;;
58470;SDS011;44258;51.288;12.068;2023-05-10T12:13:10;5.72;;;1.30;;
58470;SDS011;44258;51.288;12.068;2023-05-10T12:15:39;1.45;;;0.90;;
58470;SDS011;44258;51.288;12.068;2023-05-10T12:18:07;1.73;;;1.00;;
58470;SDS011;44258;51.288;12.068;2023-05-10T12:20:35;3.38;;;0.88;;
58470;SDS011;44258;51.288;12.068;2023-05-10T12:23:03;2.55;;;1.20;;
58470;SDS011;44258;51.288;12.068;2023-05-10T12:25:32;2.65;;;0.88;;
58470;SDS011;44258;51.288;12.068;2023-05-10T12:28:02;2.15;;;1.17;;
58470;SDS011;44258;51.288;12.068;2023-05-10T12:30:30;2.63;;;1.08;;
58470;SDS011;44258;51.288;12.068;2023-05-10T12:32:59;2.58;;;1.05;;
58470;SDS011;44258;51.288;12.068;2023-05-10T12:35:32;2.30;;;0.82;;
58470;SDS011;44258;51.288;12.068;2023-05-10T12:38:00;1.13;;;0.80;;
58470;SDS011;44258;51.288;12.068;2023-05-10T12:40:27;1.50;;;1.00;;
58470;SDS011;44258;51.288;12.068;2023-05-10T12:42:58;1.90;;;1.02;;
58470;SDS011;44258;51.288;12.068;2023-05-10T12:45:24;1.60;;;1.10;;
58470;SDS011;44258;51.288;12.068;2023-05-10T12:47:51;1.27;;;1.10;;
58470;SDS011;44258;51.288;12.068;2023-05-10T12:53:58;3.08;;;1.35;;
58470;SDS011;44258;51.288;12.068;2023-05-10T12:56:26;2.08;;;1.17;;
58470;SDS011;44258;51.288;12.068;2023-05-10T12:58:53;3.15;;;1.20;;
58470;SDS011;44258;51.288;12.068;2023-05-10T13:01:20;3.80;;;1.30;;
58470;SDS011;44258;51.288;12.068;2023-05-10T13:03:46;3.72;;;1.35;;
58470;SDS011;44258;51.288;12.068;2023-05-10T13:06:13;2.42;;;1.50;;
58470;SDS011;44258;51.288;12.068;2023-05-10T13:08:40;3.13;;;1.58;;
58470;SDS011;44258;51.288;12.068;2023-05-10T13:11:06;3.83;;;1.80;;
58470;SDS011;44258;51.288;12.068;2023-05-10T13:13:35;2.28;;;1.40;;
58470;SDS011;44258;51.288;12.068;2023-05-10T13:16:02;3.60;;;1.67;;
58470;SDS011;44258;51.288;12.068;2023-05-10T13:18:28;2.15;;;1.38;;
58470;SDS011;44258;51.288;12.068;2023-05-10T13:20:55;2.95;;;1.42;;
58470;SDS011;44258;51.288;12.068;2023-05-10T13:23:22;2.85;;;1.50;;
58470;SDS011;44258;51.288;12.068;2023-05-10T13:25:49;5.07;;;2.28;;
58470;SDS011;44258;51.288;12.068;2023-05-10T13:28:16;5.70;;;2.50;;
58470;SDS011;44258;51.288;12.068;2023-05-10T13:30:45;5.75;;;2.72;;
58470;SDS011;44258;51.288;12.068;2023-05-10T13:33:11;5.18;;;2.50;;
58470;SDS011;44258;51.288;12.068;2023-05-10T13:35:41;4.32;;;1.75;;
58470;SDS011;44258;51.288;12.068;2023-05-10T13:38:07;4.70;;;1.70;;
58470;SDS011;44258;51.288;12.068;2023-05-10T13:40:37;2.85;;;1.50;;
58470;SDS011;44258;51.288;12.068;2023-05-10T13:43:04;2.92;;;1.58;;
58470;SDS011;44258;51.288;12.068;2023-05-10T13:45:31;3.53;;;1.60;;
58470;SDS011;44258;51.288;12.068;2023-05-10T13:47:59;2.15;;;1.20;;
58470;SDS011;44258;51.288;12.068;2023-05-10T13:50:26;2.38;;;1.10;;
58470;SDS011;44258;51.288;12.068;2023-05-10T13:52:53;2.00;;;1.10;;
58470;SDS011;44258;51.288;12.068;2023-05-10T13:55:19;4.82;;;1.25;;
58470;SDS011;44258;51.288;12.068;2023-05-10T13:57:46;1.25;;;1.00;;
58470;SDS011;44258;51.288;12.068;2023-05-10T14:00:15;0.93;;;0.80;;
58470;SDS011;44258;51.288;12.068;2023-05-10T14:02:43;1.17;;;0.93;;
58470;SDS011;44258;51.288;12.068;2023-05-10T14:05:11;1.55;;;1.00;;
58470;SDS011;44258;51.288;12.068;2023-05-10T14:07:37;1.80;;;1.17;;
58470;SDS011;44258;51.288;12.068;2023-05-10T14:10:08;1.92;;;1.10;;
58470;SDS011;44258;51.288;12.068;2023-05-10T14:12:34;1.75;;;1.05;;
58470;SDS011;44258;51.288;12.068;2023-05-10T14:15:01;2.38;;;1.30;;
58470;SDS011;44258;51.288;12.068;2023-05-10T14:17:27;1.55;;;1.08;;
58470;SDS011;44258;51.288;12.068;2023-05-10T14:19:54;2.17;;;1.42;;
58470;SDS011;44258;51.288;12.068;2023-05-10T14:22:22;1.05;;;0.90;;
58470;SDS011;44258;51.288;12.068;2023-05-10T14:24:48;2.05;;;1.30;;
58470;SDS011;44258;51.288;12.068;2023-05-10T14:27:15;2.55;;;1.10;;
58470;SDS011;44258;51.288;12.068;2023-05-10T14:29:42;1.92;;;1.10;;
58470;SDS011;44258;51.288;12.068;2023-05-10T14:32:08;2.22;;;1.15;;
58470;SDS011;44258;51.288;12.068;2023-05-10T14:34:35;1.48;;;1.15;;
58470;SDS011;44258;51.288;12.068;2023-05-10T14:37:02;2.95;;;1.33;;
58470;SDS011;44258;51.288;12.068;2023-05-10T14:39:35;2.80;;;1.70;;
58470;SDS011;44258;51.288;12.068;2023-05-10T14:42:01;1.58;;;1.25;;
58470;SDS011;44258;51.288;12.068;2023-05-10T14:44:31;4.90;;;1.67;;
58470;SDS011;44258;51.288;12.068;2023-05-10T14:46:58;4.40;;;1.70;;
58470;SDS011;44258;51.288;12.068;2023-05-10T14:49:24;3.63;;;1.80;;
58470;SDS011;44258;51.288;12.068;2023-05-10T14:51:51;3.25;;;1.67;;
58470;SDS011;44258;51.288;12.068;2023-05-10T14:54:20;4.15;;;2.38;;